Time;durP1;ratioP1;P1;durP2;ratioP2;P2;SDS_P1;SDS_P2;PMS_P1;PMS_P2;Temp;Humidity;BMP_temperature;BMP_pressure;BME280_temperature;BME280_humidity;BME280_pressure;Samples;Min_cycle;Max_cycle;Signal;HPM_P1;HPM_P2
2023/03/17 00:00:09;;;;;;;2.80;1.20;;;5.10;66.70;;;;;;5049766;28;20029;-76
2023/03/17 00:02:35;;;;;;;1.88;1.30;;;5.20;66.80;;;;;;5044748;28;20052;-76
2023/03/17 00:05:01;;;;;;;5.53;1.58;;;5.20;66.40;;;;;;5043156;28;20057;-76
2023/03/17 00:07:27;;;;;;;2.45;1.20;;;5.30;66.40;;;;;;5040370;28;20033;-75
2023/03/17 00:09:53;;;;;;;3.75;1.30;;;5.30;66.10;;;;;;5050113;28;20079;-75
2023/03/17 00:12:18;;;;;;;2.90;1.20;;;5.30;66.40;;;;;;5040101;28;20469;-76
2023/03/17 00:14:45;;;;;;;3.92;1.58;;;5.40;66.60;;;;;;5046982;28;20038;-76
2023/03/17 00:17:13;;;;;;;3.20;1.10;;;5.40;66.40;;;;;;5043829;28;20544;-76
2023/03/17 00:19:40;;;;;;;3.60;1.58;;;5.40;66.50;;;;;;5042550;28;20034;-75
2023/03/17 00:22:15;;;;;;;6.30;1.60;;;5.40;66.60;;;;;;5040927;28;20067;-76
2023/03/17 00:24:41;;;;;;;4.90;1.80;;;5.40;66.40;;;;;;5042129;28;20509;-74
2023/03/17 00:27:12;;;;;;;3.55;1.23;;;5.50;66.30;;;;;;5045513;28;20048;-75
2023/03/17 00:29:38;;;;;;;1.98;1.30;;;5.40;66.60;;;;;;5039427;28;20124;-73
2023/03/17 00:32:05;;;;;;;3.85;1.42;;;5.40;66.60;;;;;;5044952;28;20037;-75
2023/03/17 00:34:30;;;;;;;5.43;1.30;;;5.40;66.80;;;;;;5043136;28;20466;-75
2023/03/17 00:36:56;;;;;;;2.53;1.30;;;5.40;67.00;;;;;;5044050;28;20051;-75
2023/03/17 00:39:24;;;;;;;3.35;1.60;;;5.40;67.10;;;;;;5044549;28;20044;-75
2023/03/17 00:41:49;;;;;;;4.07;1.33;;;5.50;66.80;;;;;;5039965;28;20033;-75
2023/03/17 00:44:15;;;;;;;4.60;1.42;;;5.40;67.10;;;;;;5049691;28;20480;-75
2023/03/17 00:46:40;;;;;;;3.67;1.50;;;5.40;67.80;;;;;;5050453;28;20056;-75
2023/03/17 00:49:18;;;;;;;3.00;1.40;;;5.50;67.40;;;;;;5045185;28;20086;-76
2023/03/17 00:51:44;;;;;;;4.75;1.73;;;5.40;67.60;;;;;;5048274;28;20058;-75
2023/03/17 00:54:11;;;;;;;3.28;1.60;;;5.50;67.50;;;;;;5052019;28;20497;-75
2023/03/17 00:56:38;;;;;;;2.75;1.50;;;5.40;67.80;;;;;;5053377;28;20032;-75
2023/03/17 00:59:04;;;;;;;3.00;1.50;;;5.40;68.00;;;;;;5047822;28;20375;-75
2023/03/17 01:01:29;;;;;;;2.40;1.30;;;5.30;67.90;;;;;;5051573;28;20025;-75
2023/03/17 01:03:56;;;;;;;2.33;1.33;;;5.40;68.20;;;;;;5057498;28;20040;-75
2023/03/17 01:06:21;;;;;;;2.45;1.40;;;5.30;68.40;;;;;;5046418;28;20064;-74
2023/03/17 01:08:47;;;;;;;4.97;1.75;;;5.40;68.10;;;;;;5050172;28;20067;-75
2023/03/17 01:11:18;;;;;;;4.15;1.40;;;5.30;68.50;;;;;;5044299;28;20386;-75
2023/03/17 01:13:44;;;;;;;2.83;1.25;;;5.30;68.40;;;;;;5045427;28;20025;-73
2023/03/17 01:16:11;;;;;;;2.75;1.40;;;5.20;68.70;;;;;;5043993;28;20126;-76
2023/03/17 01:18:36;;;;;;;2.30;1.35;;;5.20;68.90;;;;;;5052554;28;20029;-76
2023/03/17 01:21:02;;;;;;;4.88;1.70;;;5.30;68.70;;;;;;5043618;28;20183;-74
2023/03/17 01:23:28;;;;;;;2.55;1.60;;;5.10;69.20;;;;;;5043777;28;20048;-76
2023/03/17 01:25:55;;;;;;;4.22;1.40;;;5.20;68.90;;;;;;5051243;28;20386;-75
2023/03/17 01:28:20;;;;;;;2.63;1.52;;;5.20;69.10;;;;;;5048093;28;20033;-75
2023/03/17 01:30:46;;;;;;;3.30;1.75;;;5.30;69.10;;;;;;5038419;28;20040;-75
2023/03/17 01:33:13;;;;;;;3.13;1.27;;;5.20;69.10;;;;;;5050363;28;20033;-76
2023/03/17 01:35:41;;;;;;;3.58;1.23;;;5.20;69.20;;;;;;5039886;28;20222;-76
2023/03/17 01:38:07;;;;;;;3.40;1.90;;;5.10;69.40;;;;;;5051632;28;20098;-75
2023/03/17 01:40:42;;;;;;;2.17;1.40;;;5.10;69.50;;;;;;5044845;28;20033;-75
2023/03/17 01:43:07;;;;;;;4.10;1.90;;;5.10;69.90;;;;;;5049162;28;20489;-73
2023/03/17 01:46:11;;;;;;;3.55;1.52;;;5.10;69.60;;;;;;5046030;28;20103;-76
2023/03/17 01:48:49;;;;;;;4.45;1.73;;;5.00;70.10;;;;;;5049232;28;20024;-76
2023/03/17 01:51:22;;;;;;;3.70;1.80;;;5.10;70.10;;;;;;5048520;28;20310;-76
2023/03/17 01:53:49;;;;;;;3.33;1.83;;;5.10;70.10;;;;;;5050017;28;20032;-75
2023/03/17 01:56:16;;;;;;;3.95;1.73;;;5.10;70.10;;;;;;5050818;28;20029;-75
2023/03/17 01:58:45;;;;;;;2.80;1.35;;;5.10;70.20;;;;;;5050209;28;20028;-75
2023/03/17 02:01:12;;;;;;;3.38;1.63;;;5.10;70.20;;;;;;5049936;28;20024;-75
2023/03/17 02:03:39;;;;;;;4.53;2.10;;;5.10;70.60;;;;;;5051323;28;20024;-76
2023/03/17 02:06:06;;;;;;;3.85;1.48;;;5.10;70.30;;;;;;5047833;28;20037;-75
2023/03/17 02:08:31;;;;;;;3.10;1.65;;;5.20;70.20;;;;;;5047769;28;20420;-75
2023/03/17 02:10:57;;;;;;;3.35;1.67;;;5.10;70.60;;;;;;5047869;28;20116;-75
2023/03/17 02:13:23;;;;;;;4.20;1.60;;;5.10;70.60;;;;;;5051039;28;20396;-76
2023/03/17 02:15:51;;;;;;;4.18;1.90;;;5.20;70.20;;;;;;5045778;28;20044;-75
2023/03/17 02:18:19;;;;;;;5.25;1.83;;;5.10;70.40;;;;;;5044611;28;20071;-75
2023/03/17 02:20:45;;;;;;;3.63;1.63;;;5.20;70.60;;;;;;5045164;28;20167;-75
2023/03/17 02:23:11;;;;;;;3.08;1.52;;;5.10;70.60;;;;;;5045847;28;20131;-76
2023/03/17 02:25:37;;;;;;;5.25;1.60;;;5.20;70.50;;;;;;5050036;28;20025;-76
2023/03/17 02:28:15;;;;;;;4.95;1.70;;;5.20;70.70;;;;;;5046017;28;20037;-75
2023/03/17 02:30:43;;;;;;;4.68;1.65;;;5.20;70.60;;;;;;5044852;28;20044;-74
2023/03/17 02:33:10;;;;;;;3.90;1.77;;;5.10;70.80;;;;;;5047470;28;20041;-75
2023/03/17 02:35:36;;;;;;;5.25;1.92;;;5.20;70.50;;;;;;5045923;28;20627;-76
2023/03/17 02:38:02;;;;;;;4.30;2.00;;;5.20;70.80;;;;;;5046141;28;20021;-75
2023/03/17 02:40:31;;;;;;;3.38;1.80;;;5.20;70.90;;;;;;5047632;28;20110;-75
2023/03/17 02:42:56;;;;;;;4.22;1.75;;;5.10;70.90;;;;;;5046381;28;20079;-75
2023/03/17 02:45:22;;;;;;;4.55;1.80;;;5.20;70.80;;;;;;5045988;28;20126;-76
2023/03/17 02:47:50;;;;;;;5.55;1.92;;;5.20;70.80;;;;;;5045372;28;20031;-74
2023/03/17 02:50:27;;;;;;;3.33;1.60;;;5.20;70.70;;;;;;5046635;28;20036;-75
2023/03/17 02:52:53;;;;;;;4.05;2.10;;;5.10;71.10;;;;;;5042897;28;20037;-76
2023/03/17 02:55:19;;;;;;;4.57;1.92;;;5.20;71.00;;;;;;5049738;28;20496;-76
2023/03/17 02:57:44;;;;;;;5.22;1.95;;;5.20;71.10;;;;;;5040403;28;20367;-76
2023/03/17 03:00:12;;;;;;;3.70;2.00;;;5.20;71.20;;;;;;5044523;28;20044;-76
2023/03/17 03:02:37;;;;;;;6.03;2.10;;;5.30;71.00;;;;;;5047870;28;20077;-75
2023/03/17 03:05:04;;;;;;;4.85;2.05;;;5.20;71.20;;;;;;5046160;28;20041;-76
2023/03/17 03:07:30;;;;;;;4.28;1.75;;;5.20;71.30;;;;;;5040642;28;20064;-75
2023/03/17 03:09:55;;;;;;;4.10;2.05;;;5.20;71.60;;;;;;5046796;28;20477;-76
2023/03/17 03:12:21;;;;;;;3.67;2.03;;;5.20;71.30;;;;;;5049081;28;20044;-76
2023/03/17 03:14:46;;;;;;;4.40;2.05;;;5.20;71.50;;;;;;5048999;28;20120;-75
2023/03/17 03:17:12;;;;;;;5.50;2.22;;;5.20;71.80;;;;;;5044600;28;20033;-75
2023/03/17 03:19:38;;;;;;;3.20;1.95;;;5.20;71.50;;;;;;5044297;28;20033;-76
2023/03/17 03:22:04;;;;;;;3.47;1.95;;;5.20;71.70;;;;;;5048317;28;20056;-75
2023/03/17 03:24:30;;;;;;;4.47;2.25;;;5.20;71.90;;;;;;5045215;28;20056;-76
2023/03/17 03:26:56;;;;;;;4.55;2.20;;;5.10;71.90;;;;;;5047137;28;20064;-76
2023/03/17 03:29:22;;;;;;;4.30;2.13;;;5.10;72.00;;;;;;5046741;28;20037;-75
2023/03/17 03:31:47;;;;;;;4.88;1.67;;;5.00;72.30;;;;;;5046622;28;20040;-76
2023/03/17 03:34:13;;;;;;;6.13;1.80;;;5.10;72.30;;;;;;5051000;28;20045;-75
2023/03/17 03:36:39;;;;;;;4.38;2.17;;;5.00;72.60;;;;;;5048453;28;20033;-75
2023/03/17 03:39:05;;;;;;;6.85;1.88;;;5.00;72.60;;;;;;5042127;28;20481;-75
2023/03/17 03:41:30;;;;;;;5.55;2.20;;;5.00;72.80;;;;;;5042942;28;20037;-75
2023/03/17 03:43:56;;;;;;;4.47;1.98;;;5.00;73.10;;;;;;5049819;28;20052;-76
2023/03/17 03:46:21;;;;;;;7.05;2.55;;;4.90;73.30;;;;;;5049135;28;20032;-75
2023/03/17 03:48:47;;;;;;;4.35;2.00;;;4.90;73.20;;;;;;5045133;28;20033;-77
2023/03/17 03:51:12;;;;;;;5.80;2.20;;;4.80;73.70;;;;;;5045116;28;20092;-75
2023/03/17 03:53:38;;;;;;;5.13;2.72;;;5.00;73.10;;;;;;5040568;28;20033;-76
2023/03/17 03:56:04;;;;;;;4.32;2.30;;;4.90;73.30;;;;;;5039392;28;20500;-74
2023/03/17 03:58:29;;;;;;;5.18;2.45;;;4.90;73.40;;;;;;5050820;28;20036;-76
2023/03/17 04:00:55;;;;;;;3.55;2.00;;;4.90;73.30;;;;;;5045003;28;20029;-73
2023/03/17 04:03:21;;;;;;;6.78;2.30;;;4.90;73.40;;;;;;5043709;28;20112;-74
2023/03/17 04:05:46;;;;;;;4.28;2.20;;;4.90;73.60;;;;;;5047442;28;20045;-73
2023/03/17 04:08:12;;;;;;;5.50;2.58;;;4.90;73.80;;;;;;5042592;28;20584;-75
2023/03/17 04:10:37;;;;;;;7.20;3.10;;;4.80;73.80;;;;;;5047448;28;20071;-74
2023/03/17 04:13:03;;;;;;;7.60;2.30;;;4.90;73.50;;;;;;5041088;28;20490;-74
2023/03/17 04:15:28;;;;;;;5.63;2.50;;;5.00;73.30;;;;;;5044940;28;20127;-75
2023/03/17 04:17:54;;;;;;;4.75;2.42;;;4.90;73.60;;;;;;5046692;28;20143;-74
2023/03/17 04:20:20;;;;;;;5.25;2.60;;;4.80;73.60;;;;;;5050601;28;20063;-74
2023/03/17 04:22:46;;;;;;;6.22;2.50;;;4.80;73.50;;;;;;5045427;28;20500;-75
2023/03/17 04:25:13;;;;;;;6.05;3.00;;;4.90;73.60;;;;;;5049647;28;20041;-75
2023/03/17 04:27:40;;;;;;;6.15;2.45;;;4.90;73.40;;;;;;5049719;28;20058;-75
2023/03/17 04:30:09;;;;;;;5.80;2.60;;;4.70;73.90;;;;;;5052053;28;20386;-75
2023/03/17 04:32:34;;;;;;;7.85;2.38;;;4.60;74.60;;;;;;5044936;28;20025;-75
2023/03/17 04:35:00;;;;;;;5.20;2.63;;;4.60;74.50;;;;;;5046361;28;20509;-75
2023/03/17 04:37:26;;;;;;;5.45;2.90;;;4.60;74.60;;;;;;5042172;28;20074;-75
2023/03/17 04:39:52;;;;;;;4.95;2.60;;;4.60;74.90;;;;;;5044237;28;20425;-75
2023/03/17 04:42:17;;;;;;;4.55;2.47;;;4.60;75.00;;;;;;5044642;28;20062;-75
2023/03/17 04:44:43;;;;;;;6.63;2.47;;;4.60;74.90;;;;;;5051511;28;20087;-75
2023/03/17 04:47:08;;;;;;;6.18;2.70;;;4.60;74.90;;;;;;5048053;28;20071;-75
2023/03/17 04:49:34;;;;;;;4.82;2.60;;;4.60;75.00;;;;;;5049543;28;20029;-75
2023/03/17 04:52:00;;;;;;;7.40;3.00;;;4.60;74.80;;;;;;5047502;28;20462;-74
2023/03/17 04:54:25;;;;;;;5.85;2.75;;;4.60;75.00;;;;;;5045001;28;20029;-76
2023/03/17 04:56:51;;;;;;;4.78;2.80;;;4.60;74.80;;;;;;5044142;28;20033;-74
2023/03/17 04:59:17;;;;;;;7.22;2.70;;;4.70;74.50;;;;;;5048908;28;20166;-76
2023/03/17 05:01:42;;;;;;;7.65;3.10;;;4.60;74.40;;;;;;5042649;28;20386;-77
2023/03/17 05:04:08;;;;;;;5.65;2.85;;;4.60;74.90;;;;;;5046022;28;20040;-76
2023/03/17 05:06:34;;;;;;;4.72;2.60;;;4.60;75.20;;;;;;5043264;28;20095;-75
2023/03/17 05:09:00;;;;;;;5.82;2.95;;;4.60;75.10;;;;;;5053449;28;20032;-76
2023/03/17 05:11:25;;;;;;;4.60;2.80;;;4.60;75.20;;;;;;5047268;28;20397;-76
2023/03/17 05:13:51;;;;;;;5.53;2.60;;;4.60;74.80;;;;;;5050563;28;20033;-73
2023/03/17 05:16:16;;;;;;;6.85;3.15;;;4.50;75.30;;;;;;5042205;28;20036;-73
2023/03/17 05:18:42;;;;;;;6.18;2.90;;;4.50;75.50;;;;;;5048652;28;20414;-75
2023/03/17 05:21:08;;;;;;;6.70;2.92;;;4.50;75.50;;;;;;5044678;28;20033;-76
2023/03/17 05:23:34;;;;;;;6.57;2.60;;;4.40;75.60;;;;;;5029950;28;20398;-75
2023/03/17 05:26:00;;;;;;;6.45;3.13;;;4.40;75.60;;;;;;5049735;28;20021;-76
2023/03/17 05:28:26;;;;;;;6.78;3.03;;;4.40;75.90;;;;;;5051244;28;20611;-76
2023/03/17 05:30:52;;;;;;;4.38;2.83;;;4.30;76.00;;;;;;5045734;28;20108;-74
2023/03/17 05:33:19;;;;;;;6.20;2.90;;;4.40;75.70;;;;;;5049083;28;20048;-74
2023/03/17 05:35:45;;;;;;;5.82;2.53;;;4.50;75.60;;;;;;5047481;28;20079;-75
2023/03/17 05:38:12;;;;;;;6.07;3.05;;;4.40;75.70;;;;;;5050777;28;20021;-75
2023/03/17 05:40:37;;;;;;;9.13;2.92;;;4.60;75.50;;;;;;5047865;28;20064;-75
2023/03/17 05:43:04;;;;;;;6.00;3.03;;;4.50;75.70;;;;;;5043384;28;20114;-75
2023/03/17 05:45:30;;;;;;;5.28;2.80;;;4.50;75.60;;;;;;5056550;28;20033;-75
2023/03/17 05:47:56;;;;;;;5.65;2.90;;;4.50;75.60;;;;;;5060197;28;20096;-78
2023/03/17 05:50:22;;;;;;;6.03;3.00;;;4.50;75.70;;;;;;5064224;28;20067;-76
2023/03/17 05:52:50;;;;;;;6.47;3.08;;;4.50;75.70;;;;;;5063150;28;20024;-75
2023/03/17 05:55:16;;;;;;;5.47;3.08;;;4.50;75.50;;;;;;5066505;28;20049;-74
2023/03/17 05:57:41;;;;;;;7.00;2.78;;;4.50;75.60;;;;;;5068686;28;20048;-73
2023/03/17 06:00:08;;;;;;;4.85;2.55;;;4.60;75.50;;;;;;5065765;28;20037;-75
2023/03/17 06:02:34;;;;;;;4.72;2.50;;;4.50;75.50;;;;;;5066733;28;20500;-73
2023/03/17 06:04:59;;;;;;;4.78;2.40;;;4.60;75.20;;;;;;5065683;28;20032;-75
2023/03/17 06:07:25;;;;;;;5.85;2.88;;;4.60;75.20;;;;;;5063399;28;20265;-76
2023/03/17 06:09:51;;;;;;;6.50;2.75;;;4.60;75.30;;;;;;5057991;28;20025;-73
2023/03/17 06:12:16;;;;;;;8.10;3.28;;;4.60;75.40;;;;;;5050154;28;20098;-75
2023/03/17 06:14:42;;;;;;;6.30;3.10;;;4.60;75.40;;;;;;5051786;28;20119;-75
2023/03/17 06:17:07;;;;;;;6.22;2.88;;;4.60;75.70;;;;;;5047816;28;20036;-75
2023/03/17 06:19:33;;;;;;;7.57;2.88;;;4.60;75.70;;;;;;5048549;28;20036;-74
2023/03/17 06:21:58;;;;;;;7.22;2.80;;;4.60;75.50;;;;;;5037815;28;20036;-74
2023/03/17 06:24:24;;;;;;;5.90;3.08;;;4.80;75.00;;;;;;5049245;28;20075;-75
2023/03/17 06:26:51;;;;;;;6.82;2.33;;;4.80;74.80;;;;;;5052033;28;20051;-75
2023/03/17 06:29:17;;;;;;;4.82;3.05;;;4.80;75.10;;;;;;5050536;28;20079;-74
2023/03/17 06:31:49;;;;;;;5.85;3.10;;;4.80;74.90;;;;;;5043165;28;20033;-75
2023/03/17 06:34:15;;;;;;;6.32;3.08;;;4.90;74.40;;;;;;5039710;28;20415;-75
2023/03/17 06:36:40;;;;;;;11.82;2.75;;;5.00;74.20;;;;;;5046504;28;20033;-74
2023/03/17 06:39:06;;;;;;;5.57;3.05;;;5.00;74.50;;;;;;5049451;28;20021;-73
2023/03/17 06:41:32;;;;;;;6.35;2.70;;;5.00;74.20;;;;;;5043652;28;20339;-73
2023/03/17 06:43:57;;;;;;;5.38;2.47;;;5.10;73.70;;;;;;5046381;28;20471;-72
2023/03/17 06:46:23;;;;;;;4.75;2.35;;;5.20;73.70;;;;;;5044783;28;20048;-74
2023/03/17 06:48:48;;;;;;;5.00;2.70;;;5.30;73.40;;;;;;5042773;28;20053;-74
2023/03/17 06:51:14;;;;;;;4.80;2.55;;;5.40;73.10;;;;;;5047304;28;20082;-74
2023/03/17 06:53:39;;;;;;;6.00;2.80;;;5.50;73.20;;;;;;5039466;28;20037;-74
2023/03/17 06:56:06;;;;;;;5.78;3.10;;;5.50;73.00;;;;;;5051350;28;20453;-73
2023/03/17 06:58:32;;;;;;;5.05;2.70;;;5.60;72.70;;;;;;5051006;28;20049;-73
2023/03/17 07:00:58;;;;;;;5.60;2.72;;;5.80;72.20;;;;;;5048638;28;20064;-74
2023/03/17 07:03:24;;;;;;;6.13;2.97;;;6.00;71.30;;;;;;5045018;28;20400;-74
2023/03/17 07:05:50;;;;;;;5.82;2.80;;;6.10;70.80;;;;;;5047192;28;20085;-74
2023/03/17 07:08:16;;;;;;;4.68;2.60;;;6.20;70.50;;;;;;5048475;28;20090;-73
2023/03/17 07:10:42;;;;;;;6.10;2.95;;;6.40;71.10;;;;;;5050227;28;20032;-73
2023/03/17 07:13:09;;;;;;;4.95;2.45;;;6.50;70.30;;;;;;5051383;28;20441;-74
2023/03/17 07:15:36;;;;;;;5.88;2.67;;;6.60;68.80;;;;;;5043951;28;20107;-74
2023/03/17 07:18:02;;;;;;;5.97;2.88;;;6.80;68.50;;;;;;5041219;28;20025;-75
2023/03/17 07:20:27;;;;;;;5.40;2.92;;;6.90;69.40;;;;;;5049340;28;20046;-74
2023/03/17 07:22:53;;;;;;;5.40;2.80;;;6.90;68.60;;;;;;5045314;28;20410;-74
2023/03/17 07:25:18;;;;;;;6.38;3.10;;;7.10;68.30;;;;;;5047553;28;20037;-74
2023/03/17 07:27:44;;;;;;;5.68;2.80;;;7.20;68.20;;;;;;5046610;28;20033;-75
2023/03/17 07:30:11;;;;;;;5.60;2.92;;;7.30;67.40;;;;;;5042580;28;20025;-73
2023/03/17 07:32:38;;;;;;;5.72;2.80;;;7.40;66.50;;;;;;5049537;28;20496;-78
2023/03/17 07:35:04;;;;;;;7.78;2.90;;;7.50;66.60;;;;;;5044666;28;20033;-77
2023/03/17 07:37:30;;;;;;;6.55;3.25;;;7.60;65.90;;;;;;5044378;28;20203;-77
2023/03/17 07:39:55;;;;;;;5.30;2.80;;;7.60;65.70;;;;;;5046467;28;20028;-78
2023/03/17 07:42:21;;;;;;;6.18;3.15;;;7.70;65.60;;;;;;5048170;28;20389;-78
2023/03/17 07:44:46;;;;;;;5.45;2.90;;;7.70;65.30;;;;;;5047297;28;20385;-75
2023/03/17 07:47:13;;;;;;;6.13;2.55;;;7.80;65.10;;;;;;5047944;28;20045;-75
2023/03/17 07:49:39;;;;;;;5.85;2.78;;;7.90;65.60;;;;;;5045182;28;20033;-73
2023/03/17 07:52:05;;;;;;;6.78;3.05;;;7.90;64.90;;;;;;5050758;28;20033;-75
2023/03/17 07:54:31;;;;;;;7.93;3.00;;;8.10;64.40;;;;;;5051274;28;20029;-75
2023/03/17 07:56:56;;;;;;;5.90;3.00;;;8.10;65.00;;;;;;5044472;28;20033;-76
2023/03/17 07:59:22;;;;;;;7.00;2.80;;;8.10;65.20;;;;;;5048662;28;20034;-76
2023/03/17 08:01:48;;;;;;;6.55;3.05;;;8.30;64.40;;;;;;5045521;28;20039;-76
2023/03/17 08:04:13;;;;;;;6.03;3.00;;;8.40;63.70;;;;;;5051885;28;20125;-75
2023/03/17 08:06:41;;;;;;;6.55;3.17;;;8.50;63.30;;;;;;5041004;28;20190;-76
2023/03/17 08:09:07;;;;;;;4.68;2.67;;;8.70;62.70;;;;;;5052055;28;20420;-75
2023/03/17 08:11:34;;;;;;;6.85;2.58;;;8.80;62.90;;;;;;5051048;28;20086;-76
2023/03/17 08:14:01;;;;;;;6.90;3.00;;;8.90;63.20;;;;;;5050777;28;20068;-76
2023/03/17 08:16:27;;;;;;;4.93;2.60;;;9.10;62.40;;;;;;5051272;28;20029;-76
2023/03/17 08:18:53;;;;;;;6.35;2.90;;;9.20;62.20;;;;;;5050205;28;20454;-76
2023/03/17 08:21:19;;;;;;;5.55;2.85;;;9.40;62.50;;;;;;5045276;28;21278;-73
2023/03/17 08:23:45;;;;;;;8.98;3.22;;;9.40;61.10;;;;;;5048816;28;20579;-76
2023/03/17 08:26:10;;;;;;;6.15;3.05;;;9.60;60.80;;;;;;5051904;28;20033;-76
2023/03/17 08:28:36;;;;;;;5.80;3.08;;;9.70;59.90;;;;;;5044182;28;20032;-77
2023/03/17 08:31:07;;;;;;;8.38;2.92;;;9.90;60.20;;;;;;5046759;28;20425;-73
2023/03/17 08:33:33;;;;;;;6.15;2.67;;;10.10;60.50;;;;;;5051586;28;20059;-74
2023/03/17 08:35:59;;;;;;;7.03;2.83;;;10.40;60.20;;;;;;5045504;28;20035;-77
2023/03/17 08:38:24;;;;;;;5.07;2.88;;;10.60;58.60;;;;;;5047074;28;20450;-76
2023/03/17 08:40:50;;;;;;;5.25;2.88;;;11.00;59.00;;;;;;5046519;28;20037;-77
2023/03/17 08:43:17;;;;;;;5.43;2.42;;;10.80;58.10;;;;;;5046139;28;20017;-76
2023/03/17 08:45:42;;;;;;;3.85;2.55;;;10.80;57.30;;;;;;5048526;28;20044;-76
2023/03/17 08:48:08;;;;;;;6.82;3.05;;;10.80;57.40;;;;;;5049814;28;20033;-77
2023/03/17 08:50:34;;;;;;;5.60;2.95;;;10.70;57.60;;;;;;5047529;28;20032;-76
2023/03/17 08:53:00;;;;;;;4.22;2.80;;;10.70;57.90;;;;;;5049546;28;20142;-77
2023/03/17 08:55:26;;;;;;;5.53;2.20;;;10.80;57.30;;;;;;5049997;28;20128;-76
2023/03/17 08:57:51;;;;;;;5.15;2.50;;;10.60;57.00;;;;;;5053284;28;20033;-76
2023/03/17 09:00:19;;;;;;;6.22;2.63;;;10.60;57.90;;;;;;5049321;28;20487;-76
2023/03/17 09:02:45;;;;;;;4.57;2.58;;;10.50;57.70;;;;;;5042100;28;20051;-76
2023/03/17 09:05:12;;;;;;;5.82;2.85;;;10.50;57.70;;;;;;5040422;28;20049;-76
2023/03/17 09:07:38;;;;;;;5.60;2.53;;;10.70;58.20;;;;;;5043273;28;20033;-76
2023/03/17 09:10:05;;;;;;;7.35;2.97;;;11.30;57.80;;;;;;5044738;28;20021;-76
2023/03/17 09:12:31;;;;;;;7.13;2.90;;;11.40;57.10;;;;;;5052055;28;20025;-74
2023/03/17 09:14:57;;;;;;;4.45;2.55;;;11.70;56.30;;;;;;5050507;28;20040;-76
2023/03/17 09:17:22;;;;;;;6.53;2.92;;;11.50;55.50;;;;;;5044598;28;20025;-74
2023/03/17 09:19:48;;;;;;;5.68;2.65;;;11.90;55.00;;;;;;5048037;28;20071;-76
2023/03/17 09:22:17;;;;;;;4.53;2.38;;;11.70;56.00;;;;;;5047237;28;20025;-76
2023/03/17 09:24:43;;;;;;;5.55;2.60;;;11.50;56.30;;;;;;5047040;28;20041;-76
2023/03/17 09:27:08;;;;;;;9.32;2.80;;;11.60;56.10;;;;;;5041266;28;20048;-75
2023/03/17 09:29:34;;;;;;;5.68;2.83;;;11.40;56.70;;;;;;5050271;28;20435;-76
2023/03/17 09:32:00;;;;;;;4.55;2.75;;;11.30;56.70;;;;;;5052626;28;20021;-76
2023/03/17 09:34:25;;;;;;;5.68;2.65;;;11.80;56.20;;;;;;5047216;28;20469;-76
2023/03/17 09:36:54;;;;;;;5.75;2.78;;;12.00;55.50;;;;;;5044287;28;20036;-75
2023/03/17 09:39:23;;;;;;;5.28;2.78;;;12.60;55.10;;;;;;5048152;28;20033;-74
2023/03/17 09:42:00;;;;;;;7.65;2.92;;;12.30;54.80;;;;;;5045439;28;20033;-74
2023/03/17 09:44:53;;;;;;;6.45;2.75;;;12.20;54.60;;;;;;5051502;28;20484;-74
2023/03/17 09:47:36;;;;;;;6.50;2.55;;;11.80;56.00;;;;;;5050688;28;20496;-73
2023/03/17 09:50:18;;;;;;;4.65;2.40;;;11.50;56.10;;;;;;5045984;28;20036;-74
2023/03/17 09:52:44;;;;;;;5.90;2.88;;;11.60;56.40;;;;;;5044990;28;20036;-73
2023/03/17 09:55:21;;;;;;;5.80;2.70;;;11.90;56.20;;;;;;5048703;28;20037;-74
2023/03/17 09:57:50;;;;;;;5.72;2.50;;;11.90;55.50;;;;;;5043206;28;20059;-74
2023/03/17 10:00:25;;;;;;;4.55;2.40;;;11.80;55.90;;;;;;5048626;28;20033;-73
2023/03/17 10:02:52;;;;;;;5.00;2.78;;;12.00;56.40;;;;;;5045825;28;20083;-74
2023/03/17 10:05:23;;;;;;;10.48;2.58;;;12.20;55.30;;;;;;5047339;28;20041;-74
2023/03/17 10:07:49;;;;;;;4.57;2.33;;;12.30;55.20;;;;;;5049238;28;20065;-74
2023/03/17 10:10:58;;;;;;;4.68;2.40;;;12.70;54.80;;;;;;5048296;28;20063;-74
2023/03/17 10:13:39;;;;;;;5.07;2.80;;;12.90;54.80;;;;;;5051288;28;20033;-74
2023/03/17 10:16:16;;;;;;;5.60;2.60;;;13.10;54.10;;;;;;5050681;28;20045;-74
2023/03/17 10:18:55;;;;;;;4.47;2.30;;;13.40;53.10;;;;;;5048602;28;20083;-74
2023/03/17 10:21:27;;;;;;;5.07;2.40;;;14.00;53.60;;;;;;5046224;28;20025;-73
2023/03/17 10:23:53;;;;;;;10.75;2.60;;;14.30;51.30;;;;;;5047227;28;20081;-74
2023/03/17 10:26:31;;;;;;;3.80;1.92;;;14.20;50.50;;;;;;5042934;28;20033;-75
2023/03/17 10:28:58;;;;;;;4.70;2.45;;;14.70;50.30;;;;;;5050302;28;20054;-73
2023/03/17 10:31:33;;;;;;;4.53;2.10;;;14.60;50.50;;;;;;5039444;28;20225;-74
2023/03/17 10:34:13;;;;;;;4.82;2.17;;;15.10;50.50;;;;;;5045914;28;20087;-74
2023/03/17 10:36:43;;;;;;;3.70;2.10;;;14.80;48.80;;;;;;5039395;28;20453;-74
2023/03/17 10:39:13;;;;;;;4.75;2.28;;;15.00;48.60;;;;;;5044835;28;20109;-75
2023/03/17 10:41:46;;;;;;;5.43;2.25;;;15.40;48.30;;;;;;5043604;28;20365;-74
2023/03/17 10:44:22;;;;;;;6.53;2.40;;;15.00;46.50;;;;;;5050301;28;20029;-75
2023/03/17 10:46:55;;;;;;;4.80;2.08;;;15.20;46.50;;;;;;5044405;28;20032;-75
2023/03/17 10:49:22;;;;;;;4.05;2.05;;;15.20;47.70;;;;;;5048306;28;20029;-75
2023/03/17 10:51:51;;;;;;;3.90;2.05;;;15.40;47.60;;;;;;5046862;28;20051;-75
2023/03/17 10:54:19;;;;;;;4.60;2.15;;;15.80;47.60;;;;;;5050560;28;20039;-75
2023/03/17 10:56:48;;;;;;;4.75;2.05;;;15.40;46.70;;;;;;5048495;28;20117;-75
2023/03/17 10:59:42;;;;;;;4.72;1.98;;;15.30;46.60;;;;;;5048106;28;20029;-74
2023/03/17 11:02:17;;;;;;;4.20;2.10;;;15.50;46.70;;;;;;5035472;28;20028;-72
2023/03/17 11:04:43;;;;;;;5.13;1.92;;;15.50;46.50;;;;;;5048555;28;20024;-74
2023/03/17 11:07:17;;;;;;;5.35;2.35;;;15.40;46.60;;;;;;5046056;28;20421;-75
2023/03/17 11:09:49;;;;;;;6.30;1.90;;;15.60;47.00;;;;;;5051374;28;20218;-73
2023/03/17 11:12:21;;;;;;;4.15;1.90;;;15.60;47.20;;;;;;5049328;28;20104;-74
2023/03/17 11:14:48;;;;;;;5.93;2.05;;;15.60;47.00;;;;;;5050803;28;20029;-75
2023/03/17 11:17:32;;;;;;;4.80;2.20;;;15.30;46.50;;;;;;5040114;28;20021;-75
2023/03/17 11:20:41;;;;;;;4.65;2.10;;;15.30;46.80;;;;;;5044166;28;20025;-74
2023/03/17 11:23:31;;;;;;;5.03;2.00;;;15.40;46.50;;;;;;5044272;28;20045;-74
2023/03/17 11:26:17;;;;;;;3.47;1.77;;;15.50;47.00;;;;;;5050268;28;20461;-75
2023/03/17 11:28:50;;;;;;;4.00;2.30;;;15.80;46.10;;;;;;5047828;28;20032;-74
2023/03/17 11:31:29;;;;;;;3.83;2.13;;;15.90;45.70;;;;;;5045294;28;20116;-75
2023/03/17 11:33:58;;;;;;;5.20;1.90;;;15.80;46.20;;;;;;5050290;28;20060;-75
2023/03/17 11:36:37;;;;;;;4.00;1.70;;;15.80;46.30;;;;;;5044768;28;20029;-74
2023/03/17 11:39:21;;;;;;;5.68;2.50;;;15.70;45.30;;;;;;5050699;28;20099;-72
2023/03/17 11:42:14;;;;;;;5.13;2.08;;;15.80;46.30;;;;;;5049103;28;20032;-75
2023/03/17 11:44:58;;;;;;;4.22;1.80;;;16.00;45.90;;;;;;5048074;28;20029;-74
2023/03/17 11:47:48;;;;;;;5.38;2.28;;;16.40;45.90;;;;;;5048220;28;20112;-75
2023/03/17 11:50:23;;;;;;;6.97;2.27;;;16.70;43.50;;;;;;5047712;28;20029;-75
2023/03/17 11:52:57;;;;;;;3.28;2.00;;;16.30;44.70;;;;;;5032001;28;20068;-75
2023/03/17 11:55:41;;;;;;;3.75;1.90;;;16.50;44.00;;;;;;5049648;28;20041;-75
2023/03/17 11:58:25;;;;;;;4.45;2.25;;;16.90;44.00;;;;;;5043213;28;20461;-75
2023/03/17 12:00:56;;;;;;;3.65;2.10;;;17.30;42.30;;;;;;5048518;28;20130;-74
2023/03/17 12:03:57;;;;;;;4.85;2.10;;;16.90;42.50;;;;;;5041405;28;20445;-74
2023/03/17 12:06:33;;;;;;;3.80;2.15;;;17.40;43.20;;;;;;5026069;28;20056;-73
2023/03/17 12:09:14;;;;;;;4.07;2.00;;;17.10;43.60;;;;;;5034439;28;20029;-75
2023/03/17 12:11:43;;;;;;;3.85;2.10;;;17.50;42.10;;;;;;5046674;28;20032;-76
2023/03/17 12:14:34;;;;;;;4.57;2.40;;;17.90;41.80;;;;;;5049732;28;20032;-74
2023/03/17 12:17:04;;;;;;;;;;;17.70;41.50;;;;;;5048263;28;20033;-75
2023/03/17 12:19:44;;;;;;;5.82;2.38;;;17.30;40.90;;;;;;5052652;28;20255;-74
2023/03/17 12:22:29;;;;;;;3.67;1.83;;;17.20;42.90;;;;;;5038885;28;20021;-74
2023/03/17 12:25:18;;;;;;;4.95;2.30;;;17.50;43.10;;;;;;5035226;28;20036;-75
2023/03/17 12:27:59;;;;;;;4.57;2.22;;;17.50;40.70;;;;;;5046824;28;20078;-75
2023/03/17 12:30:53;;;;;;;5.20;2.17;;;17.30;41.90;;;;;;5040902;28;20033;-74
2023/03/17 12:33:39;;;;;;;6.35;2.75;;;17.80;41.40;;;;;;5048772;28;20031;-72
2023/03/17 12:36:06;;;;;;;4.63;2.40;;;18.10;41.40;;;;;;5045927;28;20469;-73
2023/03/17 12:38:56;;;;;;;7.80;2.40;;;17.70;40.80;;;;;;5042454;28;20025;-71
2023/03/17 12:41:41;;;;;;;6.50;2.40;;;17.90;41.90;;;;;;5049143;28;20040;-72
2023/03/17 12:44:38;;;;;;;4.35;2.50;;;17.60;41.50;;;;;;5051662;28;20146;-73
2023/03/17 12:47:12;;;;;;;5.72;2.33;;;18.10;41.30;;;;;;5046709;28;20040;-73
2023/03/17 12:50:03;;;;;;;5.35;2.25;;;18.30;40.40;;;;;;5048986;28;20041;-72
2023/03/17 12:53:08;;;;;;;4.65;2.70;;;18.60;41.40;;;;;;5040733;28;20029;-72
2023/03/17 12:55:35;;;;;;;4.15;2.40;;;18.70;41.00;;;;;;5052775;28;20040;-72
2023/03/17 12:58:06;;;;;;;4.68;2.35;;;19.00;40.80;;;;;;5044368;28;20219;-72
2023/03/17 13:00:45;;;;;;;6.85;2.97;;;19.10;41.00;;;;;;5047300;28;20036;-74
2023/03/17 13:03:22;;;;;;;5.72;2.83;;;18.80;40.30;;;;;;5046777;28;20043;-74